createdAt,value
2018-12-08T00:02:39.302Z,46.91
2018-12-08T00:08:34.305Z,40.4
2018-12-08T00:14:29.293Z,36.12
2018-12-08T00:20:24.353Z,31.39
2018-12-08T00:26:19.333Z,28.55
2018-12-08T00:32:14.356Z,23.94
2018-12-08T00:38:09.332Z,23.27
2018-12-08T00:44:04.333Z,23.42
2018-12-08T00:49:59.338Z,19.18
2018-12-08T00:55:54.347Z,15.2
2018-12-08T01:01:49.395Z,20.31
2018-12-08T01:07:44.335Z,19.95
2018-12-08T01:13:39.353Z,17.01
2018-12-08T01:19:34.345Z,17.44
2018-12-08T01:25:29.350Z,12.66
2018-12-08T01:31:24.400Z,21.22
2018-12-08T01:37:19.395Z,20.92
2018-12-08T01:43:14.379Z,21.41
2018-12-08T01:49:09.395Z,23.48
2018-12-08T01:55:04.372Z,18.38
2018-12-08T02:00:59.395Z,20.76
2018-12-08T02:06:54.403Z,22.9
2018-12-08T02:12:49.372Z,13.57
2018-12-08T02:18:44.371Z,15.91
2018-12-08T02:24:39.389Z,16.8
2018-12-08T02:30:34.400Z,13.73
2018-12-08T02:36:29.419Z,15.62
2018-12-08T02:42:24.390Z,15.87
2018-12-08T02:48:19.399Z,19.03
2018-12-08T02:54:14.400Z,13.4
2018-12-08T03:00:09.457Z,13.89
2018-12-08T03:06:04.404Z,17.03
2018-12-08T03:11:59.434Z,12.27
2018-12-08T03:17:54.499Z,18.26
2018-12-08T03:23:49.455Z,20.25
2018-12-08T03:29:44.427Z,20.29
2018-12-08T03:35:39.448Z,15.66
2018-12-08T03:41:34.439Z,19.96
2018-12-08T03:47:29.447Z,20.96
2018-12-08T03:53:24.451Z,17.5
2018-12-08T03:59:20.007Z,18.3
2018-12-08T04:05:14.476Z,25.06
2018-12-08T04:11:09.438Z,16.97
2018-12-08T04:17:04.461Z,18.32
2018-12-08T04:22:59.487Z,24.68
2018-12-08T04:28:54.463Z,25.85
2018-12-08T04:34:54.932Z,27.53
2018-12-08T04:46:39.469Z,31.34
2018-12-08T04:46:39.499Z,26.21
2018-12-08T04:52:34.457Z,18.99
2018-12-08T04:58:29.508Z,5.23
2018-12-08T05:04:24.554Z,2.18
2018-12-08T05:10:19.507Z,1.19
2018-12-08T05:16:14.476Z,2.54
2018-12-08T05:22:09.487Z,3.88
2018-12-08T05:28:04.536Z,2.22
2018-12-08T05:33:59.506Z,4.87
2018-12-08T05:39:54.484Z,2.9
2018-12-08T05:45:49.489Z,3.75
2018-12-08T05:51:44.524Z,2.13
2018-12-08T05:57:39.496Z,1.51
2018-12-08T06:03:34.504Z,2.09
2018-12-08T06:09:29.539Z,2.54
2018-12-08T06:15:24.512Z,2.7
2018-12-08T06:21:19.524Z,5.54
2018-12-08T06:27:14.511Z,3.63
2018-12-08T06:33:09.531Z,4.33
2018-12-08T06:39:04.517Z,4.67
2018-12-08T06:44:59.534Z,4.07
2018-12-08T06:50:54.543Z,3.73
2018-12-08T06:56:49.541Z,7.82
2018-12-08T07:02:44.547Z,3.26
2018-12-08T07:08:39.592Z,4.66
2018-12-08T07:14:34.546Z,3.27
2018-12-08T07:20:29.555Z,6.2
2018-12-08T07:26:24.564Z,4.19
2018-12-08T07:32:19.583Z,5.46
2018-12-08T07:38:14.589Z,2.55
2018-12-08T07:44:09.591Z,4.79
2018-12-08T07:50:04.611Z,5.12
2018-12-08T07:55:59.572Z,3.07
2018-12-08T08:01:54.555Z,4.82
2018-12-08T08:07:49.592Z,4.48
2018-12-08T08:13:44.579Z,7.14
2018-12-08T08:19:39.565Z,3.68
2018-12-08T08:25:34.623Z,2.5
2018-12-08T08:31:29.596Z,3.52
2018-12-08T08:37:24.605Z,3.22
2018-12-08T08:43:19.633Z,5.29
2018-12-08T08:49:14.624Z,5.78
2018-12-08T08:55:09.598Z,3.95
2018-12-08T09:01:04.627Z,7.22
2018-12-08T09:06:59.619Z,5.58
2018-12-08T09:12:54.600Z,4.99
2018-12-08T09:18:49.615Z,4.86
2018-12-08T09:24:44.650Z,10.68
2018-12-08T09:30:39.640Z,52.72
2018-12-08T09:36:34.656Z,43.57
2018-12-08T09:42:29.640Z,18.81
2018-12-08T09:48:24.650Z,9.12
2018-12-08T09:54:19.644Z,4.53
2018-12-08T10:00:14.689Z,6.79
2018-12-08T10:06:09.652Z,5.3
2018-12-08T10:12:04.704Z,6.81
2018-12-08T10:17:59.676Z,9.66
2018-12-08T10:23:54.657Z,8.16
2018-12-08T10:29:49.756Z,7.9
2018-12-08T10:35:44.697Z,8
2018-12-08T10:41:39.651Z,6.56
2018-12-08T10:47:34.693Z,7.63
2018-12-08T10:53:29.691Z,11.17
2018-12-08T10:59:24.673Z,8.24
2018-12-08T11:05:19.690Z,6.8
2018-12-08T11:11:14.706Z,6.49
2018-12-08T11:23:04.703Z,8.82
2018-12-08T11:28:59.716Z,8.33
2018-12-08T11:34:54.731Z,8.24
2018-12-08T11:40:49.716Z,9.89
2018-12-08T11:46:44.703Z,10.7
2018-12-08T11:52:39.728Z,7.84
2018-12-08T11:58:34.710Z,4.94
2018-12-08T12:04:29.721Z,5.52
2018-12-08T12:10:24.728Z,6.51
2018-12-08T12:16:19.792Z,3.26
2018-12-08T12:22:14.739Z,4.32
2018-12-08T12:28:11.108Z,4.81
2018-12-08T12:34:04.750Z,6.08
2018-12-08T12:39:59.723Z,12.87
2018-12-08T12:45:54.751Z,15.58
2018-12-08T12:51:49.760Z,6.1
2018-12-08T12:57:44.736Z,30.35
2018-12-08T13:03:39.777Z,12.34
2018-12-08T13:09:34.758Z,10.74
2018-12-08T13:15:29.778Z,4.95
2018-12-08T13:21:24.806Z,46.78
2018-12-08T13:27:19.793Z,6.8
2018-12-08T13:33:14.778Z,3.81
2018-12-08T13:39:09.826Z,2.8
2018-12-08T13:45:04.785Z,2.37
2018-12-08T13:50:59.796Z,3.18
2018-12-08T13:56:54.803Z,16.53
2018-12-08T14:02:49.798Z,7.75
2018-12-08T14:08:44.837Z,4.06
2018-12-08T14:14:39.863Z,6.27
2018-12-08T14:20:34.794Z,5.35
2018-12-08T14:26:29.786Z,4.46
2018-12-08T14:32:24.810Z,7.52
2018-12-08T14:38:19.811Z,4.3
2018-12-08T14:44:14.870Z,6.62
2018-12-08T14:50:09.890Z,4.2
2018-12-08T14:56:04.828Z,2.63
2018-12-08T15:01:59.874Z,5.14
2018-12-08T15:07:54.824Z,8.8
2018-12-08T15:13:49.858Z,3.07
2018-12-08T15:19:44.968Z,4.11
2018-12-08T15:25:39.922Z,3.06
2018-12-08T15:31:34.836Z,3.34
2018-12-08T15:37:29.882Z,3.18
2018-12-08T15:43:24.866Z,3.99
2018-12-08T15:49:19.840Z,3.2
2018-12-08T15:55:14.884Z,4.13
2018-12-08T16:01:09.864Z,3.97
2018-12-08T16:07:04.900Z,6.13
2018-12-08T16:12:59.894Z,3.14
2018-12-08T16:18:54.893Z,5.96
2018-12-08T16:24:49.950Z,3.08
2018-12-08T16:30:44.870Z,3.43
2018-12-08T16:36:39.923Z,4
2018-12-08T16:42:34.974Z,2.86
2018-12-08T16:48:29.877Z,5.92
2018-12-08T16:54:24.929Z,4.31
2018-12-08T17:00:19.888Z,5.24
2018-12-08T17:06:14.895Z,4.57
2018-12-08T17:12:09.894Z,3.64
2018-12-08T17:18:04.930Z,4.76
2018-12-08T17:23:59.923Z,3.38
2018-12-08T17:29:54.946Z,5.27
2018-12-08T17:35:49.927Z,7.29
2018-12-08T17:41:44.908Z,15.44
2018-12-08T17:47:39.957Z,11.39
2018-12-08T17:53:34.920Z,15.12
2018-12-08T17:59:29.932Z,19.64
2018-12-08T18:05:24.947Z,12.49
2018-12-08T18:11:19.988Z,12.08
2018-12-08T18:17:14.980Z,4.53
2018-12-08T18:23:09.997Z,7.77
2018-12-08T18:29:04.960Z,6.37
2018-12-08T18:34:59.956Z,9.67
2018-12-08T18:40:54.964Z,6.59
2018-12-08T18:46:49.939Z,9.08
2018-12-08T18:52:44.951Z,5.7
2018-12-08T18:58:39.978Z,5.7
2018-12-08T19:04:34.967Z,4.83
2018-12-08T19:10:30.010Z,5.51
2018-12-08T19:16:24.974Z,6.71
2018-12-08T19:22:20.056Z,3.65
2018-12-08T19:28:14.956Z,7.39
2018-12-08T19:34:09.960Z,5.33
2018-12-08T19:40:04.990Z,5.2
2018-12-08T19:45:59.987Z,6.96
2018-12-08T19:51:55.031Z,9.04
2018-12-08T19:57:50.072Z,8.65
2018-12-08T20:03:45.040Z,4.08
2018-12-08T20:09:40.073Z,8.91
2018-12-08T20:15:35.002Z,4.82
2018-12-08T20:21:29.994Z,6.05
2018-12-08T20:27:25.000Z,13.26
2018-12-08T20:33:20.038Z,34.13
2018-12-08T20:39:15.011Z,20.89
2018-12-08T20:45:10.109Z,12.85
2018-12-08T20:51:05.040Z,9.95
2018-12-08T20:57:00.009Z,10.73
2018-12-08T21:02:55.036Z,6.14
2018-12-08T21:08:50.031Z,4.87
2018-12-08T21:14:45.079Z,9.21
2018-12-08T21:20:40.057Z,4.85
2018-12-08T21:26:35.043Z,4.67
2018-12-08T21:32:30.103Z,4.98
2018-12-08T21:38:25.057Z,6.17
2018-12-08T21:44:20.074Z,9.98
2018-12-08T21:50:15.087Z,10.06
2018-12-08T21:56:10.060Z,31.69
2018-12-08T22:02:05.045Z,23.46
2018-12-08T22:08:00.112Z,12.87
2018-12-08T22:13:55.115Z,8.47
2018-12-08T22:19:50.071Z,6.16
2018-12-08T22:25:45.105Z,9.2
2018-12-08T22:31:40.081Z,10.19
2018-12-08T22:37:35.066Z,7.87
2018-12-08T22:43:30.089Z,11.19
2018-12-08T22:49:25.078Z,8.38
2018-12-08T22:55:20.079Z,16.21
2018-12-08T23:01:15.081Z,8
2018-12-08T23:07:10.081Z,3.91
2018-12-08T23:13:05.090Z,5.9
2018-12-08T23:19:00.164Z,7.01
2018-12-08T23:24:55.087Z,5.65
2018-12-08T23:30:50.120Z,7.8
2018-12-08T23:36:45.158Z,5.79
2018-12-08T23:42:40.164Z,5.74
2018-12-08T23:48:35.105Z,7.11
2018-12-08T23:54:30.141Z,6.97
